createdAt,value
2022-10-22T00:00:16.937Z,3.03
2022-10-22T00:02:44.164Z,3.97
2022-10-22T00:05:11.709Z,2.03
2022-10-22T00:07:38.926Z,1.87
2022-10-22T00:10:06.902Z,1.50
2022-10-22T00:12:34.078Z,1.47
2022-10-22T00:15:00.815Z,1.20
2022-10-22T00:17:27.544Z,1.10
2022-10-22T00:19:54.313Z,1.37
2022-10-22T00:22:20.963Z,1.20
2022-10-22T00:24:47.723Z,1.30
2022-10-22T00:27:15.048Z,1.10
2022-10-22T00:29:41.782Z,1.00
2022-10-22T00:32:08.711Z,1.10
2022-10-22T00:34:35.409Z,1.63
2022-10-22T00:37:02.057Z,1.30
2022-10-22T00:39:29.470Z,1.00
2022-10-22T00:41:57.869Z,1.70
2022-10-22T00:45:02.150Z,1.20
2022-10-22T00:47:39.586Z,1.07
2022-10-22T00:50:11.426Z,1.20
2022-10-22T00:52:40.866Z,1.05
2022-10-22T00:55:08.055Z,1.10
2022-10-22T00:57:36.508Z,1.30
2022-10-22T01:00:05.543Z,1.03
2022-10-22T01:02:32.375Z,0.80
2022-10-22T01:04:59.112Z,0.80
2022-10-22T01:07:26.271Z,0.90
2022-10-22T01:09:52.833Z,1.00
2022-10-22T01:12:29.324Z,0.70
2022-10-22T01:15:23.825Z,0.80
2022-10-22T01:17:58.277Z,0.70
2022-10-22T01:21:07.621Z,1.20
2022-10-22T01:23:52.564Z,0.80
2022-10-22T01:29:05.724Z,0.70
2022-10-22T01:31:38.827Z,0.73
2022-10-22T01:34:08.444Z,0.60
2022-10-22T01:36:37.525Z,0.63
2022-10-22T01:39:06.709Z,0.80
2022-10-22T01:41:34.897Z,0.80
2022-10-22T01:44:01.666Z,0.70
2022-10-22T01:46:29.376Z,1.00
2022-10-22T01:49:21.740Z,0.80
2022-10-22T01:51:57.179Z,0.60
2022-10-22T01:54:35.715Z,1.27
2022-10-22T01:57:11.676Z,0.80
2022-10-22T01:59:41.249Z,0.83
2022-10-22T02:02:39.687Z,0.77
2022-10-22T02:05:23.204Z,0.70
2022-10-22T02:07:55.536Z,0.70
2022-10-22T02:10:23.942Z,0.70
2022-10-22T02:12:54.718Z,1.13
2022-10-22T02:15:23.991Z,0.80
2022-10-22T02:17:53.375Z,0.70
2022-10-22T02:20:33.375Z,1.63
2022-10-22T02:23:01.764Z,0.90
2022-10-22T02:25:32.596Z,0.73
2022-10-22T02:28:15.873Z,0.93
2022-10-22T02:30:46.900Z,0.70
2022-10-22T02:33:22.453Z,0.60
2022-10-22T02:35:51.097Z,0.50
2022-10-22T02:38:19.208Z,0.80
2022-10-22T02:40:46.990Z,0.90
2022-10-22T02:43:14.108Z,0.60
2022-10-22T02:45:41.046Z,1.00
2022-10-22T02:48:08.024Z,0.73
2022-10-22T02:50:34.810Z,0.60
2022-10-22T02:53:01.536Z,0.80
2022-10-22T02:55:28.382Z,1.23
2022-10-22T02:57:55.217Z,0.60
2022-10-22T03:00:22.375Z,0.83
2022-10-22T03:02:49.098Z,0.60
2022-10-22T03:05:16.003Z,1.13
2022-10-22T03:07:43.169Z,0.60
2022-10-22T03:10:10.171Z,0.77
2022-10-22T03:12:36.881Z,0.40
2022-10-22T03:15:04.108Z,0.50
2022-10-22T03:17:30.821Z,0.70
2022-10-22T03:19:57.447Z,0.60
2022-10-22T03:22:28.420Z,0.43
2022-10-22T03:25:00.862Z,0.70
2022-10-22T03:27:30.242Z,0.73
2022-10-22T03:29:58.876Z,0.80
2022-10-22T03:32:25.587Z,1.73
2022-10-22T03:34:52.480Z,1.00
2022-10-22T03:37:19.631Z,1.03
2022-10-22T03:39:46.880Z,1.17
2022-10-22T03:42:13.764Z,1.33
2022-10-22T03:44:41.191Z,1.07
2022-10-22T03:47:08.272Z,0.70
2022-10-22T03:49:35.146Z,1.07
2022-10-22T03:52:09.633Z,0.80
2022-10-22T03:57:09.436Z,1.10
2022-10-22T03:59:44.599Z,0.80
2022-10-22T04:02:13.438Z,1.97
2022-10-22T04:04:40.108Z,1.30
2022-10-22T04:07:08.458Z,1.00
2022-10-22T04:09:35.406Z,0.73
2022-10-22T04:12:02.158Z,0.93
2022-10-22T04:14:28.915Z,1.60
2022-10-22T04:16:55.725Z,1.70
2022-10-22T04:19:22.391Z,0.90
2022-10-22T04:21:49.387Z,1.03
2022-10-22T04:24:16.449Z,1.10
2022-10-22T04:26:43.573Z,0.87
2022-10-22T04:29:13.583Z,1.20
2022-10-22T04:31:42.811Z,1.05
2022-10-22T04:34:09.480Z,0.90
2022-10-22T04:36:36.425Z,1.77
2022-10-22T04:39:04.286Z,1.27
2022-10-22T04:41:33.495Z,0.90
2022-10-22T04:44:01.164Z,1.10
2022-10-22T04:46:30.666Z,1.50
2022-10-22T04:48:57.332Z,1.97
2022-10-22T04:51:26.226Z,1.30
2022-10-22T04:53:53.621Z,1.13
2022-10-22T04:56:23.178Z,0.97
2022-10-22T04:58:54.666Z,1.10
2022-10-22T05:01:24.269Z,1.93
2022-10-22T05:03:53.299Z,0.97
2022-10-22T05:06:23.333Z,1.37
2022-10-22T05:08:55.823Z,1.53
2022-10-22T05:11:33.966Z,1.27
2022-10-22T05:14:02.638Z,1.30
2022-10-22T05:16:30.354Z,1.60
2022-10-22T05:18:59.308Z,1.33
2022-10-22T05:21:26.600Z,1.80
2022-10-22T05:23:54.885Z,1.50
2022-10-22T05:26:22.784Z,2.00
2022-10-22T05:28:51.786Z,1.73
2022-10-22T05:31:18.998Z,2.50
2022-10-22T05:33:46.528Z,1.60
2022-10-22T05:36:16.626Z,2.40
2022-10-22T05:38:43.362Z,2.20
2022-10-22T05:41:12.591Z,1.90
2022-10-22T05:43:39.399Z,1.67
2022-10-22T05:46:09.231Z,2.00
2022-10-22T05:48:36.492Z,2.90
2022-10-22T05:51:05.650Z,1.93
2022-10-22T05:53:36.777Z,1.90
2022-10-22T05:56:06.796Z,1.60
2022-10-22T05:58:34.675Z,2.67
2022-10-22T06:01:13.001Z,2.83
2022-10-22T06:03:40.345Z,1.47
2022-10-22T06:06:42.214Z,2.13
2022-10-22T06:09:41.370Z,1.63
2022-10-22T06:12:11.421Z,1.20
2022-10-22T06:14:38.243Z,1.30
2022-10-22T06:17:05.013Z,1.90
2022-10-22T06:19:31.679Z,1.67
2022-10-22T06:21:58.394Z,2.17
2022-10-22T06:24:25.132Z,1.30
2022-10-22T06:26:52.432Z,2.13
2022-10-22T06:29:19.150Z,2.30
2022-10-22T06:31:45.830Z,1.07
2022-10-22T06:34:14.333Z,1.07
2022-10-22T06:36:42.896Z,1.30
2022-10-22T06:39:12.956Z,1.43
2022-10-22T06:41:40.134Z,1.37
2022-10-22T06:44:07.466Z,1.30
2022-10-22T06:46:34.152Z,1.53
2022-10-22T06:49:03.412Z,1.70
2022-10-22T06:51:30.299Z,1.60
2022-10-22T06:53:58.045Z,1.50
2022-10-22T06:56:27.244Z,1.53
2022-10-22T06:58:55.808Z,1.03
2022-10-22T07:01:28.713Z,1.23
2022-10-22T07:03:55.822Z,1.50
2022-10-22T07:06:23.809Z,1.40
2022-10-22T07:08:51.091Z,1.20
2022-10-22T07:11:23.494Z,1.30
2022-10-22T07:13:50.371Z,2.05
2022-10-22T07:16:18.476Z,1.30
2022-10-22T07:18:45.914Z,1.60
2022-10-22T07:21:15.071Z,1.00
2022-10-22T07:23:42.364Z,1.00
2022-10-22T07:26:10.028Z,1.33
2022-10-22T07:28:39.874Z,1.20
2022-10-22T07:31:09.342Z,0.90
2022-10-22T07:33:36.643Z,1.30
2022-10-22T07:36:06.606Z,1.10
2022-10-22T07:38:34.157Z,1.00
2022-10-22T07:41:01.208Z,1.23
2022-10-22T07:43:27.980Z,1.07
2022-10-22T07:45:57.852Z,1.20
2022-10-22T07:48:24.722Z,1.07
2022-10-22T07:50:52.127Z,0.90
2022-10-22T07:53:19.847Z,1.00
2022-10-22T07:55:51.223Z,1.50
2022-10-22T07:58:19.579Z,0.90
2022-10-22T08:05:38.278Z,1.27
2022-10-22T08:09:04.807Z,1.20
2022-10-22T08:16:23.649Z,1.07
2022-10-22T08:19:50.173Z,0.93
2022-10-22T08:23:16.795Z,1.53
2022-10-22T08:26:43.226Z,1.10
2022-10-22T08:33:52.930Z,2.20
2022-10-22T08:37:19.352Z,1.27
2022-10-22T08:44:37.096Z,1.30
2022-10-22T08:48:09.737Z,1.00
2022-10-22T08:54:39.270Z,1.20
2022-10-22T08:57:28.628Z,1.30
2022-10-22T09:00:55.364Z,1.20
2022-10-22T09:04:05.153Z,0.93
2022-10-22T09:07:31.838Z,2.30
2022-10-22T09:10:58.294Z,1.10
2022-10-22T09:18:08.972Z,1.10
2022-10-22T09:21:47.652Z,0.97
2022-10-22T09:25:14.187Z,1.50
2022-10-22T09:46:04.405Z,0.97
2022-10-22T09:48:35.037Z,0.97
2022-10-22T09:51:13.789Z,1.20
2022-10-22T09:54:04.689Z,1.20
2022-10-22T09:56:37.242Z,1.13
2022-10-22T09:59:04.275Z,1.00
2022-10-22T10:01:38.707Z,0.97
2022-10-22T10:04:09.901Z,1.13
2022-10-22T10:06:42.451Z,0.90
2022-10-22T10:09:21.034Z,1.58
2022-10-22T10:12:03.147Z,1.30
2022-10-22T10:14:45.199Z,1.30
2022-10-22T10:17:36.851Z,1.13
2022-10-22T10:20:15.566Z,1.10
2022-10-22T10:22:58.422Z,1.50
2022-10-22T10:25:48.212Z,1.30
2022-10-22T10:28:15.070Z,1.13
2022-10-22T10:31:08.703Z,1.20
2022-10-22T10:33:47.405Z,1.10
2022-10-22T10:36:40.266Z,1.10
2022-10-22T10:39:13.029Z,0.98
2022-10-22T10:44:29.965Z,2.40
2022-10-22T10:47:20.553Z,1.57
2022-10-22T10:49:47.906Z,1.30
2022-10-22T10:52:27.880Z,1.37
2022-10-22T10:55:20.598Z,1.20
2022-10-22T10:57:54.268Z,1.10
2022-10-22T11:00:22.740Z,1.53
2022-10-22T11:03:10.801Z,1.20
2022-10-22T11:05:41.009Z,1.37
2022-10-22T11:08:46.317Z,1.23
2022-10-22T11:11:21.963Z,1.37
2022-10-22T11:14:03.379Z,2.07
2022-10-22T11:16:37.497Z,1.30
2022-10-22T11:19:49.596Z,1.03
2022-10-22T11:22:34.355Z,1.27
2022-10-22T11:25:13.206Z,1.33
2022-10-22T11:27:48.375Z,1.10
2022-10-22T11:30:21.936Z,1.37
2022-10-22T11:33:00.114Z,1.17
2022-10-22T11:35:30.601Z,1.57
2022-10-22T11:37:58.599Z,1.93
2022-10-22T11:41:37.610Z,1.60
2022-10-22T11:45:02.283Z,1.90
2022-10-22T11:48:19.201Z,1.40
2022-10-22T11:51:31.715Z,1.17
2022-10-22T11:54:47.261Z,1.10
2022-10-22T11:57:36.710Z,1.33
2022-10-22T12:01:21.318Z,0.93
2022-10-22T12:04:57.223Z,1.47
2022-10-22T12:08:35.581Z,0.90
2022-10-22T12:12:05.135Z,1.97
2022-10-22T12:19:25.899Z,1.75
2022-10-22T12:22:32.354Z,1.20
2022-10-22T12:29:59.593Z,1.43
2022-10-22T12:33:35.271Z,1.10
2022-10-22T12:41:04.906Z,1.60
2022-10-22T12:44:31.398Z,0.83
2022-10-22T12:47:58.140Z,1.10
2022-10-22T12:51:24.576Z,1.10
2022-10-22T12:58:45.002Z,1.02
2022-10-22T13:02:14.344Z,1.10
2022-10-22T13:09:16.677Z,2.00
2022-10-22T13:12:48.953Z,1.90
2022-10-22T13:15:47.594Z,1.30
2022-10-22T13:19:14.015Z,1.30
2022-10-22T13:22:40.578Z,1.10
2022-10-22T13:25:36.105Z,1.40
2022-10-22T13:28:42.795Z,0.93
2022-10-22T13:32:09.245Z,0.87
2022-10-22T13:34:36.610Z,1.83
2022-10-22T13:38:03.194Z,1.40
2022-10-22T13:47:41.531Z,1.63
2022-10-22T13:51:14.259Z,2.90
2022-10-22T13:53:41.644Z,1.23
2022-10-22T13:57:10.038Z,2.40
2022-10-22T14:03:34.746Z,1.77
2022-10-22T14:06:01.895Z,1.27
2022-10-22T14:08:28.908Z,1.45
2022-10-22T14:10:55.897Z,1.20
2022-10-22T14:13:22.886Z,1.60
2022-10-22T14:16:49.646Z,1.23
2022-10-22T14:20:16.239Z,1.45
2022-10-22T14:26:35.392Z,1.55
2022-10-22T14:29:11.327Z,1.73
2022-10-22T14:31:44.486Z,1.40
2022-10-22T14:34:13.786Z,1.67
2022-10-22T14:36:43.751Z,2.00
2022-10-22T14:39:11.147Z,2.20
2022-10-22T14:41:38.492Z,1.67
2022-10-22T14:44:05.341Z,1.67
2022-10-22T14:46:32.432Z,1.37
2022-10-22T14:48:59.193Z,1.97
2022-10-22T14:51:26.015Z,2.70
2022-10-22T14:53:52.862Z,1.30
2022-10-22T14:56:22.689Z,1.50
2022-10-22T14:58:50.095Z,1.50
2022-10-22T15:01:17.487Z,1.70
2022-10-22T15:03:44.214Z,1.40
2022-10-22T15:06:11.033Z,1.80
2022-10-22T15:08:37.914Z,1.47
2022-10-22T15:11:07.601Z,1.40
2022-10-22T15:13:35.304Z,1.37
2022-10-22T15:16:02.419Z,1.70
2022-10-22T15:18:29.618Z,1.57
2022-10-22T15:21:00.503Z,2.07
2022-10-22T15:23:28.254Z,1.30
2022-10-22T15:25:55.753Z,1.50
2022-10-22T15:28:23.385Z,1.73
2022-10-22T15:30:59.424Z,1.10
2022-10-22T15:33:28.248Z,1.70
2022-10-22T15:35:56.113Z,2.17
2022-10-22T15:41:06.858Z,1.20
2022-10-22T15:43:34.890Z,1.60
2022-10-22T15:46:13.865Z,1.80
2022-10-22T15:48:41.611Z,1.50
2022-10-22T15:51:14.090Z,1.30
2022-10-22T15:53:41.646Z,1.20
2022-10-22T15:56:09.666Z,1.80
2022-10-22T15:58:36.608Z,2.23
2022-10-22T16:01:12.335Z,1.80
2022-10-22T16:03:39.555Z,1.30
2022-10-22T16:06:08.202Z,1.20
2022-10-22T16:08:35.411Z,2.63
2022-10-22T16:11:02.290Z,6.10
2022-10-22T16:13:29.042Z,3.50
2022-10-22T16:15:55.747Z,6.90
2022-10-22T16:18:23.778Z,3.57
2022-10-22T16:20:50.798Z,1.43
2022-10-22T16:23:19.076Z,2.00
2022-10-22T16:25:46.857Z,1.97
2022-10-22T16:28:14.125Z,2.00
2022-10-22T16:30:41.779Z,1.50
2022-10-22T16:33:10.078Z,1.50
2022-10-22T16:35:41.398Z,1.87
2022-10-22T16:38:10.439Z,1.70
2022-10-22T16:40:37.187Z,1.60
2022-10-22T16:43:03.899Z,1.70
2022-10-22T16:45:30.676Z,1.80
2022-10-22T16:47:57.529Z,2.13
2022-10-22T16:50:24.188Z,1.40
2022-10-22T16:52:50.954Z,1.70
2022-10-22T16:55:18.035Z,1.90
2022-10-22T16:57:50.715Z,1.17
2022-10-22T17:02:44.568Z,1.60
2022-10-22T17:05:11.279Z,1.70
2022-10-22T17:07:38.023Z,1.63
2022-10-22T17:10:05.693Z,1.83
2022-10-22T17:12:35.511Z,1.67
2022-10-22T17:15:06.511Z,0.70
2022-10-22T17:17:33.669Z,1.70
2022-10-22T17:20:00.271Z,1.40
2022-10-22T17:22:27.253Z,1.20
2022-10-22T17:25:43.234Z,1.83
2022-10-22T17:28:13.412Z,1.30
2022-10-22T17:30:41.136Z,1.00
2022-10-22T17:33:08.669Z,1.03
2022-10-22T17:35:40.384Z,0.90
2022-10-22T17:38:07.772Z,1.88
2022-10-22T17:40:54.569Z,1.60
2022-10-22T17:43:49.017Z,1.30
2022-10-22T17:46:24.169Z,1.50
2022-10-22T17:48:52.564Z,1.70
2022-10-22T17:51:21.240Z,1.70
2022-10-22T17:53:50.299Z,1.97
2022-10-22T17:56:20.708Z,1.93
2022-10-22T17:58:47.438Z,3.00
2022-10-22T18:01:22.333Z,2.37
2022-10-22T18:03:49.773Z,1.90
2022-10-22T18:06:16.589Z,2.13
2022-10-22T18:08:43.858Z,3.80
2022-10-22T18:11:13.495Z,4.23
2022-10-22T18:13:40.207Z,3.87
2022-10-22T18:16:07.397Z,2.37
2022-10-22T18:18:35.117Z,2.33
2022-10-22T18:21:02.585Z,2.83
2022-10-22T18:23:29.613Z,2.60
2022-10-22T18:25:56.282Z,1.77
2022-10-22T18:28:22.989Z,2.60
2022-10-22T18:30:50.013Z,2.20
2022-10-22T18:33:19.042Z,2.37
2022-10-22T18:35:48.598Z,3.97
2022-10-22T18:38:15.502Z,2.07
2022-10-22T18:40:48.624Z,2.20
2022-10-22T18:43:19.187Z,4.30
2022-10-22T18:45:47.740Z,13.73
2022-10-22T18:48:17.009Z,9.47
2022-10-22T18:50:44.726Z,8.10
2022-10-22T18:53:13.835Z,6.80
2022-10-22T18:55:41.233Z,4.90
2022-10-22T18:58:08.129Z,4.93
2022-10-22T19:00:35.868Z,3.97
2022-10-22T19:03:03.587Z,5.80
2022-10-22T19:05:31.180Z,15.60
2022-10-22T19:07:57.859Z,13.20
2022-10-22T19:10:24.534Z,28.50
2022-10-22T19:12:51.356Z,9.57
2022-10-22T19:15:18.032Z,6.47
2022-10-22T19:17:45.171Z,6.93
2022-10-22T19:20:13.275Z,6.00
2022-10-22T19:22:41.060Z,10.93
2022-10-22T19:25:11.212Z,5.30
2022-10-22T19:27:39.787Z,6.03
2022-10-22T19:30:07.420Z,7.13
2022-10-22T19:32:34.817Z,4.30
2022-10-22T19:35:01.779Z,5.23
2022-10-22T19:37:28.585Z,4.70
2022-10-22T19:39:55.236Z,4.20
2022-10-22T19:42:21.975Z,4.60
2022-10-22T19:44:48.744Z,4.93
2022-10-22T19:47:16.244Z,6.20
2022-10-22T19:49:42.955Z,4.67
2022-10-22T19:52:09.860Z,5.07
2022-10-22T19:54:40.955Z,3.83
2022-10-22T19:57:08.669Z,3.50
2022-10-22T19:59:35.866Z,3.23
2022-10-22T20:02:03.946Z,5.37
2022-10-22T20:04:30.862Z,4.30
2022-10-22T20:06:57.649Z,5.83
2022-10-22T20:09:24.982Z,4.63
2022-10-22T20:11:51.657Z,4.70
2022-10-22T20:14:18.482Z,3.30
2022-10-22T20:16:45.302Z,2.77
2022-10-22T20:19:16.207Z,2.50
2022-10-22T20:21:44.242Z,3.17
2022-10-22T20:24:12.426Z,3.97
2022-10-22T20:26:39.207Z,5.80
2022-10-22T20:29:05.995Z,6.53
2022-10-22T20:31:33.306Z,8.87
2022-10-22T20:34:01.528Z,9.40
2022-10-22T20:36:30.089Z,10.87
2022-10-22T20:39:09.142Z,11.37
2022-10-22T20:41:40.806Z,15.30
2022-10-22T20:44:14.970Z,11.67
2022-10-22T20:46:42.796Z,11.43
2022-10-22T20:49:13.145Z,10.43
2022-10-22T20:51:39.975Z,6.07
2022-10-22T20:54:08.232Z,7.00
2022-10-22T20:56:37.932Z,5.30
2022-10-22T20:59:05.897Z,3.37
2022-10-22T21:01:36.807Z,2.90
2022-10-22T21:04:04.498Z,2.43
2022-10-22T21:06:31.549Z,2.37
2022-10-22T21:08:58.450Z,4.00
2022-10-22T21:11:25.144Z,3.27
2022-10-22T21:13:52.109Z,2.40
2022-10-22T21:16:19.920Z,2.77
2022-10-22T21:18:47.455Z,2.73
2022-10-22T21:21:17.102Z,3.03
2022-10-22T21:23:44.010Z,3.40
2022-10-22T21:26:11.107Z,4.17
2022-10-22T21:28:38.654Z,3.80
2022-10-22T21:31:08.217Z,4.10
2022-10-22T21:33:40.028Z,3.50
2022-10-22T21:36:09.196Z,4.88
2022-10-22T21:38:36.751Z,5.40
2022-10-22T21:41:13.788Z,4.43
2022-10-22T21:43:42.023Z,9.10
2022-10-22T21:46:14.082Z,5.27
2022-10-22T21:48:40.917Z,4.38
2022-10-22T21:51:17.143Z,5.87
2022-10-22T21:53:44.357Z,5.07
2022-10-22T21:56:16.375Z,2.70
2022-10-22T21:58:43.731Z,1.85
2022-10-22T22:01:12.607Z,2.20
2022-10-22T22:03:46.260Z,1.50
2022-10-22T22:06:13.638Z,1.90
2022-10-22T22:08:40.534Z,1.60
2022-10-22T22:11:10.765Z,2.40
2022-10-22T22:13:38.567Z,3.50
2022-10-22T22:16:08.598Z,4.23
2022-10-22T22:18:36.395Z,3.77
2022-10-22T22:21:06.328Z,2.60
2022-10-22T22:23:33.940Z,3.50
2022-10-22T22:26:01.870Z,3.07
2022-10-22T22:28:32.389Z,3.40
2022-10-22T22:30:59.283Z,3.40
2022-10-22T22:33:26.400Z,2.90
2022-10-22T22:35:53.641Z,3.30
2022-10-22T22:38:20.306Z,2.77
2022-10-22T22:40:47.246Z,3.23
2022-10-22T22:43:14.195Z,2.67
2022-10-22T22:45:41.090Z,3.90
2022-10-22T22:48:08.454Z,5.57
2022-10-22T22:50:36.870Z,7.77
2022-10-22T22:53:03.618Z,8.50
2022-10-22T22:55:32.279Z,5.37
2022-10-22T22:57:59.112Z,10.30
2022-10-22T23:00:25.910Z,10.43
2022-10-22T23:02:56.539Z,17.63
2022-10-22T23:05:23.201Z,10.40
2022-10-22T23:07:49.844Z,7.83
2022-10-22T23:10:16.737Z,5.60
2022-10-22T23:12:43.755Z,5.93
2022-10-22T23:15:11.124Z,4.77
2022-10-22T23:17:38.741Z,3.87
2022-10-22T23:20:06.077Z,4.20
2022-10-22T23:22:32.699Z,5.43
2022-10-22T23:24:59.549Z,4.03
2022-10-22T23:27:26.254Z,4.30
2022-10-22T23:29:52.895Z,5.43
2022-10-22T23:32:19.728Z,4.97
2022-10-22T23:34:46.394Z,4.60
2022-10-22T23:37:13.109Z,5.70
2022-10-22T23:39:39.879Z,4.53
2022-10-22T23:42:06.652Z,4.77
2022-10-22T23:44:33.289Z,5.50
2022-10-22T23:47:00.275Z,4.63
2022-10-22T23:49:26.938Z,3.63
2022-10-22T23:51:53.563Z,4.17
2022-10-22T23:54:20.524Z,3.60
2022-10-22T23:56:47.363Z,4.27
